Time;durP1;ratioP1;P1;durP2;ratioP2;P2;SDS_P1;SDS_P2;PMS_P1;PMS_P2;Temp;Humidity;BMP_temperature;BMP_pressure;BME280_temperature;BME280_humidity;BME280_pressure;Samples;Min_cycle;Max_cycle;Signal;HPM_P1;HPM_P2
2024/01/22 00:02:12;;;;;;;1999.90;999.90;;;6.50;99.90;;;;;;5011907;28;20037;-79
2024/01/22 00:04:38;;;;;;;1999.90;999.90;;;6.50;99.90;;;;;;5013948;28;20103;-79
2024/01/22 00:07:04;;;;;;;1999.90;999.90;;;6.50;99.90;;;;;;5032551;28;20087;-79
2024/01/22 00:09:29;;;;;;;1999.90;999.90;;;6.50;99.90;;;;;;5032605;28;20453;-79
2024/01/22 00:11:55;;;;;;;1999.90;999.90;;;6.60;99.90;;;;;;5033328;28;20484;-78
2024/01/22 00:14:20;;;;;;;1999.90;999.90;;;6.60;99.90;;;;;;5022076;28;20048;-79
2024/01/22 00:16:46;;;;;;;1999.90;999.90;;;6.50;99.90;;;;;;5032858;28;20029;-78
2024/01/22 00:19:12;;;;;;;1999.90;999.90;;;6.60;99.90;;;;;;5033057;28;20037;-80
2024/01/22 00:21:42;;;;;;;1999.90;999.90;;;6.50;99.90;;;;;;5016614;28;20069;-78
2024/01/22 00:24:08;;;;;;;1999.90;999.90;;;6.60;99.90;;;;;;5032132;28;20069;-79
2024/01/22 00:26:34;;;;;;;1999.90;999.90;;;6.60;99.90;;;;;;5032861;28;20075;-79
2024/01/22 00:28:59;;;;;;;1999.90;999.90;;;6.60;99.90;;;;;;5017079;28;20061;-78
2024/01/22 00:31:25;;;;;;;1999.90;999.90;;;6.60;99.90;;;;;;5019484;28;20391;-79
2024/01/22 00:33:51;;;;;;;1999.90;999.90;;;6.60;99.90;;;;;;5016125;28;20490;-78
2024/01/22 00:36:16;;;;;;;1999.90;999.90;;;6.60;99.90;;;;;;5015732;28;20034;-79
2024/01/22 00:38:42;;;;;;;1999.90;999.90;;;6.70;99.90;;;;;;5033005;28;20536;-79
2024/01/22 00:41:08;;;;;;;1999.90;999.90;;;6.70;99.90;;;;;;5032690;28;20048;-79
2024/01/22 00:43:35;;;;;;;1999.90;999.90;;;6.70;99.90;;;;;;5032643;28;20044;-80
2024/01/22 00:46:01;;;;;;;1999.90;999.90;;;6.70;99.90;;;;;;5016092;28;20082;-79
2024/01/22 00:48:27;;;;;;;1999.90;999.90;;;7.60;99.90;;;;;;5032327;28;20037;-78
2024/01/22 00:50:53;;;;;;;1999.90;999.90;;;6.70;99.90;;;;;;5012118;28;20037;-79
2024/01/22 00:53:18;;;;;;;1999.90;999.90;;;6.70;99.90;;;;;;5016460;28;20034;-79
2024/01/22 00:55:44;;;;;;;1999.90;999.90;;;6.80;99.90;;;;;;5032632;28;20112;-79
2024/01/22 00:58:10;;;;;;;1999.90;999.90;;;6.80;99.90;;;;;;5031970;28;20115;-78
2024/01/22 01:00:35;;;;;;;1999.90;999.90;;;6.90;99.90;;;;;;5032568;28;20037;-79
2024/01/22 01:03:01;;;;;;;1999.90;999.90;;;6.90;99.90;;;;;;5016513;28;20375;-80
2024/01/22 01:05:26;;;;;;;1999.90;999.90;;;7.00;99.90;;;;;;5025334;28;20048;-78
2024/01/22 01:07:52;;;;;;;1999.90;999.90;;;7.00;99.90;;;;;;5022124;28;20069;-78
2024/01/22 01:10:18;;;;;;;1999.90;999.90;;;7.00;99.90;;;;;;5015534;28;20080;-78
2024/01/22 01:12:43;;;;;;;1999.90;999.90;;;7.00;99.90;;;;;;5031124;28;20049;-79
2024/01/22 01:15:12;;;;;;;1999.90;999.90;;;7.00;99.90;;;;;;5031574;28;20048;-79
2024/01/22 01:17:38;;;;;;;1999.90;999.90;;;7.00;99.90;;;;;;5031908;28;20088;-79
2024/01/22 01:20:04;;;;;;;1999.90;999.90;;;7.20;99.90;;;;;;5018374;28;20398;-79
2024/01/22 01:22:31;;;;;;;1999.90;999.90;;;7.10;99.90;;;;;;5030811;28;20045;-78
2024/01/22 01:24:57;;;;;;;1999.90;999.90;;;7.10;99.90;;;;;;5033301;28;20037;-79
2024/01/22 01:27:22;;;;;;;1999.90;999.90;;;7.10;99.90;;;;;;5014709;28;20348;-78
2024/01/22 01:29:48;;;;;;;1999.90;999.90;;;7.10;99.90;;;;;;5031157;28;20543;-79
2024/01/22 01:32:13;;;;;;;1999.90;999.90;;;7.10;99.90;;;;;;5011282;28;20623;-79
2024/01/22 01:34:39;;;;;;;1999.90;999.90;;;7.20;99.90;;;;;;5031804;28;20033;-79
2024/01/22 01:37:05;;;;;;;1999.90;999.90;;;7.20;99.90;;;;;;5017766;28;20038;-80
2024/01/22 01:39:30;;;;;;;1999.90;999.90;;;7.20;99.90;;;;;;5033056;28;20030;-80
2024/01/22 01:41:56;;;;;;;1999.90;999.90;;;7.20;99.90;;;;;;5015388;28;20036;-79
2024/01/22 01:44:39;;;;;;;1999.90;999.90;;;7.30;99.90;;;;;;5032362;28;20397;-79
2024/01/22 01:47:05;;;;;;;1999.90;999.90;;;7.40;99.90;;;;;;5015648;28;20049;-79
2024/01/22 01:49:32;;;;;;;1999.90;999.90;;;7.00;99.90;;;;;;5014658;28;20462;-79
2024/01/22 01:51:58;;;;;;;1999.90;999.90;;;7.70;99.90;;;;;;5015032;28;20482;-79
2024/01/22 01:54:28;;;;;;;1999.90;999.90;;;7.40;99.90;;;;;;5014815;28;20044;-79
2024/01/22 01:56:54;;;;;;;1999.90;999.90;;;7.50;99.90;;;;;;5030284;28;20160;-79
2024/01/22 01:59:20;;;;;;;1999.90;999.90;;;7.50;99.90;;;;;;5013966;28;20041;-79
2024/01/22 02:01:45;;;;;;;1999.90;999.90;;;7.60;99.90;;;;;;5033257;28;20099;-79
2024/01/22 02:04:11;;;;;;;1999.90;999.90;;;7.90;99.90;;;;;;5030045;28;20037;-79
2024/01/22 02:06:37;;;;;;;1999.90;999.90;;;7.70;99.90;;;;;;5030018;28;20044;-78
2024/01/22 02:09:02;;;;;;;1999.90;999.90;;;7.60;99.90;;;;;;5013586;28;20070;-79
2024/01/22 02:11:29;;;;;;;1999.90;999.90;;;7.60;99.90;;;;;;5016340;28;20044;-79
2024/01/22 02:13:54;;;;;;;1999.90;999.90;;;7.60;99.90;;;;;;5029650;28;20045;-79
2024/01/22 02:16:20;;;;;;;1999.90;999.90;;;7.70;99.90;;;;;;5029733;28;20053;-78
2024/01/22 02:18:47;;;;;;;1999.90;999.90;;;7.60;99.90;;;;;;5015264;28;20033;-78
2024/01/22 02:21:14;;;;;;;1999.90;999.90;;;7.60;99.90;;;;;;5030378;28;20101;-79
2024/01/22 02:23:39;;;;;;;1999.90;999.90;;;8.40;99.90;;;;;;5031046;28;20060;-79
2024/01/22 02:26:05;;;;;;;1999.90;999.90;;;7.70;99.90;;;;;;5030682;28;20041;-79
2024/01/22 02:28:32;;;;;;;1999.90;999.90;;;7.70;99.90;;;;;;5031726;28;20041;-79
2024/01/22 02:30:58;;;;;;;1999.90;999.90;;;7.70;99.90;;;;;;5015059;28;20033;-79
2024/01/22 02:33:24;;;;;;;1999.90;960.10;;;7.70;99.90;;;;;;5014617;28;20464;-79
2024/01/22 02:35:49;;;;;;;1999.90;987.63;;;7.70;99.90;;;;;;5031076;28;20034;-79
2024/01/22 02:38:15;;;;;;;1999.90;999.90;;;7.70;99.90;;;;;;5030957;28;20409;-79
2024/01/22 02:40:41;;;;;;;1999.90;788.65;;;7.80;99.90;;;;;;5031174;28;20033;-79
2024/01/22 02:43:06;;;;;;;1999.90;999.90;;;8.30;99.90;;;;;;5031521;28;20048;-78
2024/01/22 02:45:32;;;;;;;1999.90;794.67;;;7.90;99.90;;;;;;5030335;28;20037;-79
2024/01/22 02:47:57;;;;;;;1999.90;999.90;;;7.90;99.90;;;;;;5018690;28;20030;-79
2024/01/22 02:50:23;;;;;;;1999.90;772.38;;;8.10;99.90;;;;;;5034931;28;20383;-80
2024/01/22 02:52:49;;;;;;;1999.90;918.53;;;8.30;99.90;;;;;;5020411;28;20045;-79
2024/01/22 02:55:14;;;;;;;1999.90;996.67;;;7.90;99.90;;;;;;5034499;28;20038;-79
2024/01/22 02:57:40;;;;;;;1999.90;999.90;;;8.00;99.90;;;;;;5018086;28;20447;-79
2024/01/22 03:00:06;;;;;;;1999.90;773.95;;;8.10;99.90;;;;;;5033278;28;20037;-79
2024/01/22 03:02:32;;;;;;;1999.90;985.90;;;8.10;99.90;;;;;;5015554;28;20037;-78
2024/01/22 03:04:57;;;;;;;1999.90;736.55;;;8.20;99.90;;;;;;5033177;28;20120;-78
2024/01/22 03:07:23;;;;;;;1999.90;999.90;;;8.20;99.90;;;;;;5032893;28;20088;-79
2024/01/22 03:09:49;;;;;;;1999.90;999.90;;;8.10;99.90;;;;;;5032882;28;20073;-78
2024/01/22 03:12:14;;;;;;;1999.90;999.90;;;8.20;99.90;;;;;;5032977;28;20248;-78
2024/01/22 03:14:40;;;;;;;1999.90;999.90;;;8.20;99.90;;;;;;5034106;28;20143;-79
2024/01/22 03:17:06;;;;;;;1999.90;999.90;;;8.70;99.90;;;;;;5038183;28;20120;-79
2024/01/22 03:19:31;;;;;;;1999.90;999.90;;;8.30;99.90;;;;;;5018390;28;20461;-79
2024/01/22 03:21:57;;;;;;;1999.90;999.90;;;8.30;99.90;;;;;;5017574;28;20037;-79
2024/01/22 03:24:23;;;;;;;1999.90;999.90;;;8.50;99.90;;;;;;5033757;28;20044;-80
2024/01/22 03:26:48;;;;;;;1999.90;982.42;;;8.20;99.90;;;;;;5033602;28;20423;-78
2024/01/22 03:29:14;;;;;;;1999.90;999.90;;;8.30;99.90;;;;;;5032926;28;20478;-79
2024/01/22 03:31:39;;;;;;;1999.90;999.90;;;8.50;99.90;;;;;;5012664;28;20035;-79
2024/01/22 03:34:05;;;;;;;1999.90;999.90;;;8.30;99.90;;;;;;5033212;28;20069;-78
2024/01/22 03:36:31;;;;;;;1999.90;999.90;;;8.20;99.90;;;;;;5034358;28;20037;-79
2024/01/22 03:38:57;;;;;;;1999.90;999.90;;;8.20;99.90;;;;;;5040208;28;20114;-79
2024/01/22 03:41:22;;;;;;;1999.90;999.90;;;8.20;99.90;;;;;;5036882;28;20087;-78
2024/01/22 03:43:48;;;;;;;1999.90;999.90;;;8.20;99.90;;;;;;5032521;28;20549;-79
2024/01/22 03:46:15;;;;;;;1999.90;999.90;;;8.20;99.90;;;;;;5016428;28;20030;-79
2024/01/22 03:48:41;;;;;;;1999.90;999.90;;;8.20;99.90;;;;;;5032530;28;20037;-79
2024/01/22 03:51:07;;;;;;;1999.90;898.63;;;8.40;99.90;;;;;;5015868;28;20109;-80
2024/01/22 03:53:32;;;;;;;1999.90;958.72;;;9.10;99.90;;;;;;5033525;28;20041;-79
2024/01/22 03:55:58;;;;;;;1999.90;880.58;;;8.90;99.90;;;;;;5035171;28;20452;-79
2024/01/22 03:58:23;;;;;;;1999.90;985.78;;;8.80;99.90;;;;;;5016795;28;20418;-79
2024/01/22 04:00:49;;;;;;;1999.90;997.85;;;8.30;99.90;;;;;;5028510;28;20041;-79
2024/01/22 04:03:15;;;;;;;1999.90;999.10;;;8.30;99.90;;;;;;5032927;28;20041;-80
2024/01/22 04:05:42;;;;;;;1999.90;914.13;;;8.30;99.90;;;;;;5032694;28;20131;-79
2024/01/22 04:08:08;;;;;;;1999.90;999.90;;;8.30;99.90;;;;;;5034036;28;20095;-79
2024/01/22 04:10:33;;;;;;;1999.90;904.97;;;8.40;99.90;;;;;;5032779;28;20037;-79
2024/01/22 04:12:59;;;;;;;1999.90;967.30;;;8.40;99.90;;;;;;5035122;28;20072;-80
2024/01/22 04:15:24;;;;;;;1999.90;949.45;;;8.40;99.90;;;;;;5036521;28;20037;-78
2024/01/22 04:17:50;;;;;;;1999.90;762.08;;;8.30;99.90;;;;;;5015709;28;20449;-78
2024/01/22 04:20:16;;;;;;;1999.90;900.88;;;8.70;99.90;;;;;;5032336;28;20512;-79
2024/01/22 04:22:41;;;;;;;1999.90;980.78;;;8.50;99.90;;;;;;5033203;28;20041;-79
2024/01/22 04:25:07;;;;;;;1999.90;867.78;;;8.40;99.90;;;;;;5032705;28;20120;-79
2024/01/22 04:27:33;;;;;;;1999.90;999.90;;;8.50;99.90;;;;;;5032514;28;20033;-79
2024/01/22 04:29:58;;;;;;;1999.90;756.42;;;8.60;99.90;;;;;;5014174;28;20045;-79
2024/01/22 04:32:24;;;;;;;1999.90;995.95;;;8.50;99.90;;;;;;5035008;28;20030;-79
2024/01/22 04:34:50;;;;;;;1999.90;821.40;;;8.90;99.90;;;;;;5016011;28;20033;-78
2024/01/22 04:37:16;;;;;;;1999.90;918.65;;;8.60;99.90;;;;;;5016778;28;20490;-78
2024/01/22 04:39:43;;;;;;;1999.90;907.28;;;8.60;99.90;;;;;;5015396;28;20025;-78
2024/01/22 04:42:09;;;;;;;1999.90;752.40;;;8.90;99.90;;;;;;5015157;28;20397;-79
2024/01/22 04:44:35;;;;;;;1999.90;906.85;;;8.60;99.90;;;;;;5035299;28;20509;-78
2024/01/22 04:47:01;;;;;;;1999.90;919.17;;;8.60;99.90;;;;;;5037848;28;20040;-79
2024/01/22 04:49:27;;;;;;;1999.90;954.15;;;8.70;99.90;;;;;;5036177;28;20116;-80
2024/01/22 04:51:54;;;;;;;1999.90;997.00;;;8.70;99.90;;;;;;5015860;28;20042;-79
2024/01/22 04:54:20;;;;;;;1999.90;939.17;;;8.70;99.90;;;;;;5032531;28;20034;-79
2024/01/22 04:56:47;;;;;;;1999.90;956.05;;;8.70;99.90;;;;;;5015535;28;20398;-78
2024/01/22 04:59:13;;;;;;;1999.90;999.90;;;8.80;99.90;;;;;;5028083;28;20041;-79
2024/01/22 05:01:40;;;;;;;1999.90;999.90;;;8.80;99.90;;;;;;5032217;28;20140;-79
2024/01/22 05:04:06;;;;;;;1999.90;922.42;;;8.80;99.90;;;;;;5017328;28;20044;-79
2024/01/22 05:06:31;;;;;;;1999.90;898.45;;;8.80;99.90;;;;;;5015501;28;20448;-79
2024/01/22 05:08:57;;;;;;;1999.90;999.90;;;8.90;99.90;;;;;;5032392;28;20069;-79
2024/01/22 05:11:23;;;;;;;1999.90;929.53;;;8.90;99.90;;;;;;5031416;28;20563;-79
2024/01/22 05:13:51;;;;;;;1999.90;868.50;;;8.90;99.90;;;;;;5027572;28;20038;-79
2024/01/22 05:16:16;;;;;;;1999.90;909.88;;;9.00;99.90;;;;;;5016901;28;20078;-79
2024/01/22 05:18:47;;;;;;;1999.90;999.90;;;9.30;99.90;;;;;;5031862;28;20069;-78
2024/01/22 05:21:13;;;;;;;1999.90;908.13;;;8.90;99.90;;;;;;5016282;28;20525;-79
2024/01/22 05:23:39;;;;;;;1999.90;931.25;;;9.00;99.90;;;;;;5015279;28;20068;-79
2024/01/22 05:26:08;;;;;;;1999.90;801.78;;;9.10;99.90;;;;;;5029193;28;20406;-79
2024/01/22 05:28:34;;;;;;;1999.90;944.22;;;9.10;99.90;;;;;;5032336;28;20120;-80
2024/01/22 05:31:01;;;;;;;1999.90;842.92;;;9.30;99.90;;;;;;5015787;28;20049;-79
2024/01/22 05:33:27;;;;;;;1999.90;851.33;;;9.10;99.90;;;;;;5031968;28;20033;-79
2024/01/22 05:35:53;;;;;;;1999.90;913.67;;;9.90;99.90;;;;;;5032124;28;20165;-79
2024/01/22 05:38:19;;;;;;;1999.90;999.90;;;9.30;99.90;;;;;;5032445;28;20037;-79
2024/01/22 05:40:45;;;;;;;1999.90;999.90;;;9.30;99.90;;;;;;5031810;28;20112;-79
2024/01/22 05:43:10;;;;;;;1999.90;999.90;;;9.50;99.90;;;;;;5032104;28;20045;-79
2024/01/22 05:45:36;;;;;;;1999.90;894.42;;;9.40;99.90;;;;;;5032310;28;20044;-79
2024/01/22 05:48:03;;;;;;;1999.90;725.63;;;9.40;99.90;;;;;;5031351;28;20037;-79
2024/01/22 05:50:29;;;;;;;1999.90;999.90;;;9.40;99.90;;;;;;5031895;28;20406;-79
2024/01/22 05:52:54;;;;;;;1999.90;901.38;;;9.50;99.90;;;;;;5030181;28;20030;-79
2024/01/22 05:55:20;;;;;;;1999.90;924.95;;;9.50;99.90;;;;;;5008861;28;20116;-81
2024/01/22 05:57:47;;;;;;;1999.90;916.55;;;9.60;99.90;;;;;;5014260;28;20037;-79
2024/01/22 06:00:13;;;;;;;1999.90;706.55;;;10.10;99.90;;;;;;5030033;28;20053;-79
2024/01/22 06:02:42;;;;;;;1999.90;762.08;;;9.60;99.90;;;;;;5013584;28;20056;-79
2024/01/22 06:05:11;;;;;;;1999.90;999.90;;;9.80;99.90;;;;;;5014053;28;20067;-79
2024/01/22 06:07:37;;;;;;;1999.90;946.03;;;9.70;99.90;;;;;;5013676;28;20037;-79
2024/01/22 06:10:05;;;;;;;1999.90;982.22;;;9.80;99.90;;;;;;5016191;28;20080;-78
2024/01/22 06:12:31;;;;;;;1999.90;999.90;;;9.80;99.90;;;;;;5013397;28;20124;-79
2024/01/22 06:14:57;;;;;;;1999.90;948.85;;;9.90;99.90;;;;;;5030261;28;20041;-78
2024/01/22 06:17:23;;;;;;;1999.90;988.97;;;9.90;99.90;;;;;;5013484;28;20180;-79
2024/01/22 06:19:49;;;;;;;1999.90;931.20;;;10.00;99.90;;;;;;5029890;28;20052;-79
2024/01/22 06:22:15;;;;;;;1999.90;964.10;;;10.00;99.90;;;;;;5016097;28;20398;-78
2024/01/22 06:24:40;;;;;;;1999.90;999.90;;;10.00;99.90;;;;;;5032593;28;20037;-78
2024/01/22 06:27:06;;;;;;;1999.90;940.08;;;10.10;99.90;;;;;;5033597;28;20040;-79
2024/01/22 06:29:35;;;;;;;1999.90;999.90;;;10.10;99.90;;;;;;5033155;28;20048;-78
2024/01/22 06:32:01;;;;;;;1999.90;985.45;;;10.00;99.90;;;;;;5033175;28;20045;-78
2024/01/22 06:34:26;;;;;;;1999.90;973.85;;;10.10;99.90;;;;;;5033476;28;20053;-78
2024/01/22 06:36:52;;;;;;;1999.90;888.13;;;10.00;99.90;;;;;;5034027;28;20513;-79
2024/01/22 06:39:17;;;;;;;1999.90;999.90;;;10.30;99.90;;;;;;5034364;28;20030;-79
2024/01/22 06:41:43;;;;;;;1999.90;861.58;;;10.00;99.90;;;;;;5019301;28;20045;-79
2024/01/22 06:44:09;;;;;;;1999.90;901.85;;;10.60;99.90;;;;;;5031764;28;20049;-79
2024/01/22 06:46:34;;;;;;;1999.90;999.90;;;10.00;99.90;;;;;;5021912;28;20036;-78
2024/01/22 06:49:00;;;;;;;1999.90;999.90;;;10.10;99.90;;;;;;5018548;28;20037;-79
2024/01/22 06:51:25;;;;;;;1999.90;999.90;;;10.10;99.90;;;;;;5017810;28;20271;-78
2024/01/22 06:53:51;;;;;;;1999.90;970.38;;;10.20;99.90;;;;;;5017599;28;20037;-78
2024/01/22 06:56:17;;;;;;;1999.90;880.13;;;10.50;99.90;;;;;;5017453;28;20490;-79
2024/01/22 06:58:42;;;;;;;1999.90;999.90;;;10.10;99.90;;;;;;5018198;28;20112;-78
2024/01/22 07:01:08;;;;;;;1999.90;966.42;;;10.10;99.90;;;;;;5026218;28;20119;-78
2024/01/22 07:03:35;;;;;;;1999.90;840.75;;;10.50;99.90;;;;;;5034163;28;20541;-78
2024/01/22 07:06:01;;;;;;;1999.90;999.90;;;10.10;99.90;;;;;;5034007;28;20528;-78
2024/01/22 07:08:26;;;;;;;1999.90;958.28;;;10.10;99.90;;;;;;5036488;28;20037;-79
2024/01/22 07:10:52;;;;;;;1999.90;999.90;;;10.10;99.90;;;;;;5033770;28;20533;-78
2024/01/22 07:13:17;;;;;;;1999.90;987.85;;;10.10;99.90;;;;;;5034037;28;20144;-78
2024/01/22 07:15:43;;;;;;;1999.90;888.03;;;10.40;99.90;;;;;;5017354;28;20397;-78
2024/01/22 07:18:09;;;;;;;1999.90;951.20;;;10.10;99.90;;;;;;5033937;28;20068;-78
2024/01/22 07:20:35;;;;;;;1999.90;956.65;;;10.40;99.90;;;;;;5034137;28;20413;-78
2024/01/22 07:23:00;;;;;;;1999.90;946.08;;;10.10;99.90;;;;;;5034135;28;20045;-79
2024/01/22 07:25:27;;;;;;;1999.90;997.90;;;10.10;99.90;;;;;;5017692;28;20041;-78
2024/01/22 07:27:52;;;;;;;1999.90;999.90;;;10.10;99.90;;;;;;5037689;28;20151;-79
2024/01/22 07:30:18;;;;;;;1999.90;999.90;;;10.10;99.90;;;;;;5032738;28;20041;-79
2024/01/22 07:32:44;;;;;;;1999.90;999.90;;;10.10;99.90;;;;;;5028319;28;20041;-79
2024/01/22 07:35:13;;;;;;;1999.90;948.10;;;10.10;99.90;;;;;;5033535;28;20041;-78
2024/01/22 07:37:41;;;;;;;1999.90;936.50;;;10.00;99.90;;;;;;5017295;28;20037;-80
2024/01/22 07:40:09;;;;;;;1999.90;969.10;;;10.30;99.90;;;;;;5033290;28;20083;-79
2024/01/22 07:42:36;;;;;;;1999.90;988.58;;;10.10;99.90;;;;;;5018230;28;20041;-79
2024/01/22 07:45:03;;;;;;;1999.90;999.90;;;10.10;99.90;;;;;;5037539;28;20529;-81
2024/01/22 07:47:29;;;;;;;1999.90;999.90;;;10.00;99.90;;;;;;5022197;28;20060;-82
2024/01/22 07:49:55;;;;;;;1999.90;999.90;;;10.40;99.90;;;;;;5022369;28;20038;-82
2024/01/22 07:52:22;;;;;;;1999.90;999.90;;;10.10;99.90;;;;;;5021926;28;20548;-82
2024/01/22 07:54:49;;;;;;;1999.90;999.90;;;10.00;99.90;;;;;;5022283;28;20148;-82
2024/01/22 07:57:15;;;;;;;1999.90;999.90;;;10.00;99.90;;;;;;5023062;28;20065;-81
2024/01/22 07:59:41;;;;;;;1999.90;995.70;;;10.00;99.90;;;;;;5022590;28;20060;-82
2024/01/22 08:02:07;;;;;;;1999.90;999.90;;;10.00;99.90;;;;;;5040922;28;20037;-82
2024/01/22 08:04:34;;;;;;;1999.90;999.90;;;10.30;99.90;;;;;;5022162;28;20040;-82
2024/01/22 08:07:00;;;;;;;1999.90;999.90;;;9.90;99.90;;;;;;5037910;28;20034;-82
2024/01/22 08:09:36;;;;;;;1999.90;999.90;;;10.60;99.90;;;;;;5021497;28;20124;-82
2024/01/22 08:12:03;;;;;;;1999.90;999.90;;;10.60;99.90;;;;;;5020529;28;20530;-82
2024/01/22 08:14:35;;;;;;;1999.90;999.90;;;10.00;99.90;;;;;;5021318;28;20081;-81
2024/01/22 08:17:01;;;;;;;1999.90;999.90;;;10.20;99.90;;;;;;5021363;28;20038;-82
2024/01/22 08:19:28;;;;;;;1999.90;999.10;;;10.00;99.90;;;;;;5020841;28;20043;-82
2024/01/22 08:21:54;;;;;;;1999.90;942.88;;;10.30;99.90;;;;;;5020772;28;20034;-82
2024/01/22 08:24:23;;;;;;;1999.90;999.90;;;10.00;99.90;;;;;;5020688;28;20383;-82
2024/01/22 08:26:49;;;;;;;1999.90;996.80;;;9.90;99.90;;;;;;5020852;28;20041;-83
2024/01/22 08:29:15;;;;;;;1999.90;999.90;;;10.40;99.90;;;;;;5037101;28;20052;-82
2024/01/22 08:31:41;;;;;;;1999.90;999.90;;;10.90;99.90;;;;;;5037809;28;20052;-83
2024/01/22 08:34:07;;;;;;;1999.90;999.90;;;10.70;99.90;;;;;;5020470;28;20120;-82
2024/01/22 08:36:33;;;;;;;1999.90;999.90;;;10.80;99.90;;;;;;5020753;28;20510;-82
2024/01/22 08:38:59;;;;;;;1999.90;994.00;;;10.10;99.90;;;;;;5036563;28;20045;-81
2024/01/22 08:41:27;;;;;;;1999.90;999.90;;;10.50;99.90;;;;;;5020250;28;20041;-80
2024/01/22 08:44:02;;;;;;;1999.90;977.55;;;9.40;99.90;;;;;;5020316;28;20199;-81
2024/01/22 08:46:28;;;;;;;1999.90;999.90;;;9.20;99.90;;;;;;5020551;28;20037;-81
2024/01/22 08:48:53;;;;;;;1999.90;999.90;;;10.00;99.90;;;;;;5036233;28;20038;-80
2024/01/22 08:51:19;;;;;;;1999.90;999.90;;;10.20;99.90;;;;;;5019951;28;20429;-81
2024/01/22 08:53:44;;;;;;;1999.90;999.90;;;10.00;99.90;;;;;;5019942;28;20100;-82
2024/01/22 08:56:10;;;;;;;1999.90;999.90;;;10.60;99.90;;;;;;5019572;28;20048;-81
2024/01/22 08:58:36;;;;;;;1999.90;999.90;;;10.30;99.90;;;;;;5019231;28;20038;-81
2024/01/22 09:01:05;;;;;;;1999.90;999.90;;;10.40;99.90;;;;;;5020256;28;20041;-81
2024/01/22 09:03:34;;;;;;;1999.90;999.90;;;10.10;99.90;;;;;;5020074;28;20311;-81
2024/01/22 09:06:00;;;;;;;1999.90;999.90;;;9.70;99.90;;;;;;5019858;28;20033;-81
2024/01/22 09:08:26;;;;;;;1999.90;999.90;;;9.50;99.90;;;;;;5035926;28;20406;-82
2024/01/22 09:10:52;;;;;;;1999.90;999.90;;;10.40;99.90;;;;;;5019752;28;20490;-81
2024/01/22 09:13:19;;;;;;;1999.90;999.90;;;9.50;99.90;;;;;;5019889;28;20038;-81
2024/01/22 09:15:45;;;;;;;1999.90;999.90;;;9.90;99.90;;;;;;5036117;28;20041;-81
2024/01/22 09:18:11;;;;;;;1999.90;999.90;;;10.50;99.90;;;;;;5020018;28;20038;-81
2024/01/22 09:20:36;;;;;;;1999.90;999.90;;;9.50;99.90;;;;;;5020161;28;20041;-81
2024/01/22 09:23:02;;;;;;;1999.90;999.90;;;10.20;99.90;;;;;;5020013;28;20163;-81
2024/01/22 09:25:27;;;;;;;1999.90;999.90;;;9.40;99.90;;;;;;5019832;28;20136;-81
2024/01/22 09:27:53;;;;;;;1999.90;999.90;;;9.70;99.90;;;;;;5036602;28;20067;-81
2024/01/22 09:30:19;;;;;;;1999.90;999.90;;;9.40;99.90;;;;;;5036454;28;20087;-81
2024/01/22 09:32:45;;;;;;;1999.90;999.90;;;9.40;99.90;;;;;;5036529;28;20405;-81
2024/01/22 09:35:10;;;;;;;1999.90;999.90;;;9.40;99.90;;;;;;5019672;28;20045;-81
2024/01/22 09:37:36;;;;;;;1999.90;999.90;;;9.40;99.90;;;;;;5019960;28;20034;-81
2024/01/22 09:40:03;;;;;;;1999.90;999.90;;;9.40;99.90;;;;;;5019687;28;20065;-81
2024/01/22 09:42:29;;;;;;;1999.90;999.90;;;9.40;99.90;;;;;;5020138;28;20056;-81
2024/01/22 09:44:56;;;;;;;1999.90;999.90;;;9.40;99.90;;;;;;5019881;28;20033;-82
2024/01/22 09:47:22;;;;;;;1999.90;999.90;;;9.40;99.90;;;;;;5019653;28;20041;-81
2024/01/22 09:49:49;;;;;;;1999.90;999.90;;;9.40;99.90;;;;;;5018990;28;20406;-81
2024/01/22 09:52:16;;;;;;;1999.90;999.90;;;10.00;99.90;;;;;;5035875;28;20045;-81
2024/01/22 09:54:43;;;;;;;1999.90;999.90;;;9.70;99.90;;;;;;5019596;28;20037;-81
2024/01/22 09:57:18;;;;;;;1999.90;999.90;;;9.30;99.90;;;;;;5018950;28;20033;-81
2024/01/22 09:59:44;;;;;;;1999.90;999.90;;;9.20;99.90;;;;;;5008014;28;20060;-81
2024/01/22 10:02:18;;;;;;;1999.90;999.90;;;9.80;99.90;;;;;;5035929;28;20044;-81
2024/01/22 10:04:44;;;;;;;1999.90;999.90;;;9.20;99.90;;;;;;5019464;28;20037;-81
2024/01/22 10:07:14;;;;;;;1999.90;999.90;;;9.10;99.90;;;;;;5019567;28;20095;-81
2024/01/22 10:09:40;;;;;;;1999.90;999.90;;;9.10;99.90;;;;;;5019447;28;20037;-81
2024/01/22 10:12:12;;;;;;;1999.90;999.90;;;9.10;99.90;;;;;;5019070;28;20053;-81
2024/01/22 10:14:40;;;;;;;1999.90;999.90;;;9.10;99.90;;;;;;5018492;28;20501;-81
2024/01/22 10:17:17;;;;;;;1999.90;999.90;;;9.10;99.90;;;;;;5019448;28;20065;-81
2024/01/22 10:19:44;;;;;;;1999.90;999.90;;;9.50;99.90;;;;;;5019647;28;20112;-82
2024/01/22 10:22:10;;;;;;;1999.90;999.90;;;10.00;99.90;;;;;;5019174;28;20049;-81
2024/01/22 10:24:39;;;;;;;1999.90;999.90;;;9.20;99.90;;;;;;5019049;28;20037;-81
2024/01/22 10:27:17;;;;;;;1999.90;999.90;;;9.80;99.90;;;;;;5018799;28;20041;-82
2024/01/22 10:29:46;;;;;;;1999.90;999.90;;;8.90;99.90;;;;;;5019115;28;20037;-81
2024/01/22 10:32:12;;;;;;;1999.90;999.90;;;8.80;99.90;;;;;;5018908;28;20037;-82
2024/01/22 10:34:50;;;;;;;1999.90;999.90;;;9.20;99.90;;;;;;5035247;28;20044;-81
2024/01/22 10:37:17;;;;;;;1999.90;999.90;;;9.30;99.90;;;;;;5018348;28;20046;-81
2024/01/22 10:39:45;;;;;;;1999.90;999.90;;;9.40;99.90;;;;;;5019401;28;20257;-81
2024/01/22 10:42:12;;;;;;;1999.90;999.90;;;8.60;99.90;;;;;;5036517;28;20041;-81
2024/01/22 10:44:39;;;;;;;1999.90;999.90;;;9.20;99.90;;;;;;5019007;28;20087;-81
2024/01/22 10:47:05;;;;;;;1999.90;999.90;;;9.00;99.90;;;;;;5019219;28;20045;-81
2024/01/22 10:49:32;;;;;;;1999.90;999.90;;;9.50;99.90;;;;;;5018114;28;20044;-81
2024/01/22 10:51:59;;;;;;;1999.90;999.90;;;8.50;99.90;;;;;;5014559;28;20115;-81
2024/01/22 10:54:29;;;;;;;1999.90;999.90;;;9.00;99.90;;;;;;5035057;28;20073;-81
2024/01/22 10:57:05;;;;;;;1999.90;999.90;;;8.50;99.90;;;;;;5018440;28;20056;-81
2024/01/22 10:59:38;;;;;;;1999.90;999.90;;;8.80;99.90;;;;;;5017208;28;20052;-81
2024/01/22 11:02:15;;;;;;;1999.90;999.90;;;9.20;99.90;;;;;;5015032;28;20037;-82
2024/01/22 11:04:46;;;;;;;1999.90;999.90;;;8.70;99.90;;;;;;5039205;28;20699;-81
2024/01/22 11:07:12;;;;;;;1999.90;999.90;;;8.70;99.90;;;;;;5045698;28;20127;-81
2024/01/22 11:09:39;;;;;;;1999.90;999.90;;;9.00;99.90;;;;;;5023124;28;20037;-81
2024/01/22 11:12:14;;;;;;;1999.90;999.90;;;8.70;99.90;;;;;;5009391;28;20072;-80
2024/01/22 11:14:41;;;;;;;1999.90;999.90;;;9.40;99.90;;;;;;5038264;28;20066;-81
2024/01/22 11:17:09;;;;;;;1999.90;999.90;;;8.80;99.90;;;;;;5021853;28;20120;-81
2024/01/22 11:19:35;;;;;;;1999.90;999.90;;;8.90;99.90;;;;;;5021885;28;20562;-81
2024/01/22 11:22:21;;;;;;;1999.90;999.90;;;9.70;99.90;;;;;;5022458;28;20053;-81
2024/01/22 11:25:00;;;;;;;1999.90;999.90;;;9.30;99.90;;;;;;5018901;28;20076;-81
2024/01/22 11:27:42;;;;;;;1999.90;999.90;;;9.30;99.90;;;;;;5042573;28;20049;-81
2024/01/22 11:30:23;;;;;;;1999.90;999.90;;;9.00;99.90;;;;;;5022019;28;20049;-81
2024/01/22 11:32:49;;;;;;;1999.90;999.90;;;9.00;99.90;;;;;;5030471;28;20034;-81
2024/01/22 11:35:35;;;;;;;1999.90;999.90;;;9.30;99.90;;;;;;5021727;28;20063;-81
2024/01/22 11:38:01;;;;;;;1999.90;999.90;;;8.90;99.90;;;;;;5038641;28;20037;-82
2024/01/22 11:40:46;;;;;;;1999.90;999.90;;;8.90;99.90;;;;;;5038410;28;20516;-82
2024/01/22 11:43:12;;;;;;;1999.90;999.90;;;8.90;99.90;;;;;;5038903;28;20045;-81
2024/01/22 11:45:38;;;;;;;1999.90;999.90;;;9.70;99.90;;;;;;5040376;28;20489;-81
2024/01/22 11:48:15;;;;;;;1999.90;999.90;;;9.70;99.90;;;;;;5038286;28;20080;-81
2024/01/22 11:50:40;;;;;;;1999.90;999.90;;;9.30;99.90;;;;;;5017555;28;20041;-82
2024/01/22 11:53:06;;;;;;;1999.90;999.90;;;9.10;99.90;;;;;;5021700;28;20509;-81
2024/01/22 11:55:32;;;;;;;1999.90;999.90;;;9.20;99.90;;;;;;5022091;28;20092;-81
2024/01/22 11:57:57;;;;;;;1999.90;999.90;;;9.40;99.90;;;;;;5021435;28;20073;-82
2024/01/22 12:00:24;;;;;;;1999.90;999.90;;;9.60;99.90;;;;;;5020569;28;20072;-81
2024/01/22 12:02:51;;;;;;;1999.90;999.90;;;9.40;99.90;;;;;;5020993;28;20045;-82
2024/01/22 12:05:20;;;;;;;1999.90;999.90;;;9.40;99.90;;;;;;5038419;28;20072;-81